WEATHER DATA

TODAY
Time Temp. Dewp. Hum. Wind dir Wind speed Wind gust Bar. 1h Prec. 24h Prec.
00:06 14.6 8.3 66 315 0.3 1.1 1012.8 0.0000 0.0000
00:16 14.5 8.2 66 270 0.3 1.1 1012.7 0.0000 0.0000
00:26 14.4 8.1 66 323 0.3 1.1 1012.7 0.0000 0.0000
00:36 14.2 7.9 66 315 0.3 1.1 1012.7 0.0000 0.0000
00:47 14.1 8.1 67 315 0.3 1.1 1012.7 0.0000 0.0000
00:57 14 8 67 318 0.3 1.1 1012.7 0.0000 0.0000
01:06 13.9 7.9 67 310 0.3 1.1 1012.6 0.0000 0.0000
01:16 13.8 7.8 67 319 0.3 1.1 1012.7 0.0000 0.0000
01:27 13.7 7.7 67 315 0.3 1.1 1012.6 0.0000 0.0000
01:37 13.6 7.8 68 315 0.3 1.1 1012.6 0.0000 0.0000
01:47 13.4 7.4 67 307 0.3 1.1 1012.5 0.0000 0.0000
01:57 13.3 7.3 67 270 0.3 1.1 1012.4 0.0000 0.0000
02:07 13.2 7.2 67 302 0.3 1.1 1012.4 0.0000 0.0000
02:17 13 7 67 311 0.3 1.1 1012.7 0.0000 0.0000
02:27 12.9 7.1 68 310 0.3 0.8 1012.5 0.0000 0.0000
02:38 12.8 7 68 270 0.3 0.8 1012.5 0.0000 0.0000
02:47 12.6 6.9 68 270 0.3 1.1 1012.3 0.0000 0.0000
02:57 12.5 6.8 68 270 0.3 1.1 1012.4 0.0000 0.0000
03:08 12.4 6.7 68 270 0.3 1.1 1012.4 0.0000 0.0000
03:18 12.3 6.6 68 307 0.3 1.1 1012.2 0.0000 0.0000
03:28 12.1 6.4 68 311 0.3 1.1 1012.2 0.0000 0.0000
03:37 12 6.3 68 302 0.3 1.1 1012.3 0.0000 0.0000
03:48 11.9 6.4 69 302 0.3 1.1 1012.2 0.0000 0.0000
03:58 11.9 6.4 69 270 0.3 1.1 1012.2 0.0000 0.0000
04:08 11.9 6.4 69 270 0.3 1.1 1012.1 0.0000 0.0000
04:18 11.9 6.4 69 270 0.3 1.1 1012 0.0000 0.0000
04:32 11.9 6.4 69 270 0.3 1.1 1012 0.0000 0.0000
04:42 11.8 6.3 69 270 0.3 1.1 1012 0.0000 0.0000
04:53 11.8 6.5 70 270 0.3 1.1 1012 0.0000 0.0000
05:02 11.8 6.5 70 270 0.3 1.1 1012 0.0000 0.0000
05:12 11.9 6.6 70 315 0.3 1.1 1011.9 0.0000 0.0000
05:23 11.9 6.6 70 270 0.3 1.1 1012 0.0000 0.0000
05:33 12 6.9 71 270 0.3 1.1 1011.8 0.0000 0.0000
05:43 12.1 7 71 270 0.3 1.1 1011.9 0.0000 0.0000
05:52 12.2 7.3 72 270 0.3 1.1 1011.9 0.0000 0.0000
06:03 12.3 7.4 72 270 0.3 1.1 1011.9 0.0000 0.0000
06:13 12.4 7.5 72 303 0.3 1.1 1011.9 0.0000 0.0000
06:23 12.5 7.6 72 270 0.3 0.8 1011.9 0.0000 0.0000
06:33 12.6 7.7 72 310 0.3 1.1 1012 0.0000 0.0000
06:43 12.7 7.8 72 270 0.3 1.1 1011.9 0.0000 0.0000
06:53 12.8 7.9 72 310 0.3 0.8 1012 0.0000 0.0000
07:03 12.9 8 72 303 0.3 1.1 1011.8 0.0000 0.0000
07:14 13 8.1 72 270 0.3 1.1 1011.9 0.0000 0.0000
07:24 13.1 8.4 73 288 0.8 1.1 1012 0.0000 0.0000
07:33 13.2 8.5 73 270 0.3 1.1 1011.9 0.0000 0.0000
07:44 13.3 8.6 73 270 0.3 1.1 1011.9 0.0000 0.0000
07:54 13.3 8.6 73 270 0.3 1.1 1012 0.0000 0.0000
08:04 13.4 8.7 73 270 0.3 1.1 1011.9 0.0000 0.0000
08:14 13.5 8.8 73 309 0.3 1.1 1012 0.0000 0.0000
08:24 13.6 8.9 73 270 0.3 1.1 1011.9 0.0000 0.0000
08:34 13.7 9 73 270 0.3 1.1 1012 0.0000 0.0000
08:44 13.8 9.1 73 305 0.3 0.8 1012 0.0000 0.0000
08:54 13.9 8.9 72 310 0.3 0.8 1011.9 0.0000 0.0000
09:05 14 9 72 270 0.3 1.1 1012 0.0000 0.0000
09:14 14 9 72 270 0.3 1.1 1011.9 0.0000 0.0000
09:24 14.1 9.1 72 270 0.3 0.8 1012 0.0000 0.0000
09:35 14.2 9.2 72 302 0.3 1.1 1012.1 0.0000 0.0000
09:45 14.3 9.3 72 270 0.3 1.1 1011.9 0.0000 0.0000
09:55 14.4 9.2 71 304 0.3 1.1 1012 0.0000 0.0000
10:04 14.5 9.3 71 270 0.3 1.1 1011.9 0.0000 0.0000
10:15 14.6 9.4 71 270 0.3 1.1 1011.9 0.0000 0.0000
10:25 14.7 9.5 71 270 0.3 1.1 1011.7 0.0000 0.0000
10:35 14.8 9.4 70 270 0.3 1.1 1011.6 0.0000 0.0000
10:45 15 9.6 70 270 0.3 1.1 1011.8 0.0000 0.0000
10:55 15.1 9.7 70 270 0.8 1.1 1011.7 0.0000 0.0000
11:05 15.3 9.7 69 270 0.3 1.1 1011.7 0.0000 0.0000
11:15 15.4 9.7 69 270 0.3 1.1 1011.6 0.0000 0.0000
11:26 15.6 9.7 68 270 0.3 1.1 1011.7 0.0000 0.0000
11:36 15.7 9.8 68 270 0.3 0.8 1011.8 0.0000 0.0000
11:45 15.8 9.7 67 270 0.3 1.1 1011.8 0.0000 0.0000
11:56 15.8 9.5 66 270 0.3 1.1 1011.7 0.0000 0.0000
12:06 15.9 9.8 67 270 0.8 1.4 1011.8 0.0000 0.0000
12:16 16 9.7 66 270 0.3 1.1 1011.8 0.0000 0.0000
12:26 16.1 9.8 66 270 0.3 1.1 1011.8 0.0000 0.0000
12:37 16.2 9.8 66 270 0.3 1.1 1011.7 0.0000 0.0000
12:46 16.3 9.7 65 270 0.3 1.1 1011.6 0.0000 0.0000
12:56 16.4 9.8 65 270 0.3 1.1 1011.7 0.0000 0.0000
13:06 16.5 9.9 65 270 0.3 1.1 1011.7 0.0000 0.0000
13:17 16.7 10.1 65 270 0.8 1.1 1011.5 0.0000 0.0000
13:27 16.8 10.2 65 270 0.8 1.4 1011.6 0.0000 0.0000
13:36 16.9 10.3 65 270 0.8 1.4 1011.5 0.0000 0.0000
13:47 17.1 10.5 65 270 0.3 1.1 1011.5 0.0000 0.0000
13:57 17.2 10.3 64 270 0.3 1.1 1011.4 0.0000 0.0000
14:07 17.3 10.4 64 270 0.3 1.9 1011.2 0.0000 0.0000
14:17 17.4 10.5 64 270 0.3 1.1 1011.1 0.0000 0.0000
14:28 17.6 10.7 64 270 0.3 1.1 1011 0.0000 0.0000
14:37 17.7 10.6 63 270 0.8 1.4 1011 0.0000 0.0000
14:47 17.9 10.8 63 270 0.3 1.1 1011 0.0000 0.0000
14:58 18 10.9 63 270 0.3 1.4 1010.9 0.0000 0.0000
15:08 18.2 10.8 62 260 0.8 1.4 1010.9 0.0000 0.0000
15:18 18.3 10.9 62 270 0.3 1.1 1010.7 0.0000 0.0000
15:27 18.6 10.9 61 236 0.3 1.1 1010.8 0.0000 0.0000
15:38 19 11.3 61 270 0.8 1.9 1010.8 0.0000 0.0000
15:48 19.2 11.5 61 270 0.3 1.4 1010.6 0.0000 0.0000
15:58 19.4 11.4 60 270 0.3 1.9 1010.6 0.0000 0.0000
16:08 19.7 11.7 60 270 0.8 1.4 1010.4 0.0000 0.0000
16:19 19.9 11.7 59 270 0.3 1.1 1010.3 0.0000 0.0000
16:28 20 11.8 59 270 0.3 1.4 1010.2 0.0000 0.0000
16:38 19.9 11.7 59 270 0.8 1.4 1010.2 0.0000 0.0000
16:49 19.8 11.6 59 270 0.8 2.2 1010.1 0.0000 0.0000
16:59 20 11.5 58 270 0.3 1.1 1010.1 0.0000 0.0000
17:09 20.1 11.6 58 270 0.3 1.1 1009.9 0.0000 0.0000
17:29 20.3 11.5 57 270 0.3 1.4 1009.7 0.0000 0.0000
17:39 20.3 11.5 57 270 0.3 1.1 1009.5 0.0000 0.0000
17:49 20.4 11.3 56 270 0.3 1.1 1009.4 0.0000 0.0000
17:59 20.4 11.3 56 255 0.8 1.4 1009.3 0.0000 0.0000
18:10 20.3 11 55 270 0.8 1.9 1009.2 0.0000 0.0000
18:19 20.3 10.7 54 270 0.8 1.1 1009.1 0.0000 0.0000
18:29 20.3 10.7 54 270 0.3 1.1 1009 0.0000 0.0000
18:40 20.3 10.7 54 270 0.3 1.4 1008.9 0.0000 0.0000
18:50 20.3 10.7 54 270 0.8 1.9 1008.8 0.0000 0.0000
19:00 20.2 10.9 55 270 0.3 1.1 1008.9 0.0000 0.0000
19:10 20.2 10.9 55 270 0.3 1.1 1008.8 0.0000 0.0000
19:20 20.1 10.8 55 270 0.3 1.4 1008.8 0.0000 0.0000
19:30 20.1 10.8 55 270 0.3 1.1 1008.7 0.0000 0.0000
19:40 20 11 56 270 0.8 1.1 1008.5 0.0000 0.0000
19:51 19.9 10.9 56 270 0.3 1.1 1008.6 0.0000 0.0000
20:01 19.9 10.9 56 270 0.3 1.1 1008.6 0.0000 0.0000
20:11 19.8 11 57 270 0.3 1.1 1008.5 0.0000 0.0000

DAY STATISTIC

2019-07-17
TEMPERATURE
AVERAGE
15.6
HIGH
20.4
17:49
LOW
11.8
04:42
PRESSURE
AVERAGE
1011.4
HIGH
1012.8
00:06
LOW
1008.5
19:40
DEWPOINT
AVERAGE
9.1
HIGH
11.8
16:28
LOW
6.3
03:37
HUMIDITY
AVERAGE
66
HIGH
73
07:24
LOW
54
18:19
WIND SPEED
AVERAGE
0.4
HIGH
0.8
07:24
WIND GUST
AVERAGE
1.2
HIGH
2.2
16:49
WIND DIRECTION
PREVAILING
W
76.5%
N
0.0
NE
0.0
E
0.0
SE
0.0
S
0.0
SW
0.8
W
76.5
NW
22.7
PRECIPITATION
RAIN HOUR
0.0
RAIN DAY
0.0
TEMPERATURE (°C)
LOW
11.8
HIGH
20.4
AVERAGE
15.6
PRESSURE (hpa)
LOW
1008.5
HIGH
1012.8
AVERAGE
1011.4
DEVICE